This is the latest recevied weather packets stored in our database for station/object SR9WXGR. If no packets are shown the sender has not sent any weather packets the latest 10 day(s).
| Time | Temp. | Humidity | Pressure | Rain* | Wind** | Luminosity | Snow |
|---|---|---|---|---|---|---|---|
| 1777869302 | 11.67° C | 37% | 977 hPa | - | - | - | - |
| 1777865701 | 10.56° C | 39% | 977 hPa | - | - | - | - |
| 1777862102 | 11.67° C | 38% | 977 hPa | - | - | - | - |
| 1777854901 | 12.78° C | 36% | 977 hPa | - | - | - | - |
| 1777851301 | 15° C | 32% | 977 hPa | - | - | - | - |
| 1777847701 | 15.56° C | 30% | 977 hPa | - | - | - | - |
| 1777844101 | 16.67° C | 28% | 977 hPa | - | - | - | - |
| 1777840501 | 17.78° C | 27% | 977 hPa | - | - | - | - |
| 1777836901 | 18.89° C | 26% | 977 hPa | - | - | - | - |
| 1777833301 | 20.56° C | 23% | 977 hPa | - | - | - | - |
| 1777829700 | 25° C | 19% | 977 hPa | - | - | - | - |
| 1777826100 | 27.78° C | 17% | 977 hPa | - | - | - | - |
| 1777822501 | 28.89° C | 16% | 977 hPa | - | - | - | - |
| 1777818901 | 28.89° C | 17% | 978 hPa | - | - | - | - |
| 1777815304 | 25.56° C | 19% | 979 hPa | - | - | - | - |
| 1777811705 | 22.78° C | 24% | 979 hPa | - | - | - | - |
| 1777808101 | 20.56° C | 25% | 980 hPa | - | - | - | - |
| 1777804500 | 20.56° C | 26% | 980 hPa | - | - | - | - |
| 1777800900 | 20° C | 26% | 981 hPa | - | - | - | - |
| 1777797301 | 17.78° C | 29% | 981 hPa | - | - | - | - |
| 1777793700 | 16.67° C | 31% | 981 hPa | - | - | - | - |
| 1777790101 | 15° C | 33% | 981 hPa | - | - | - | - |
| 1777786501 | 12.78° C | 37% | 981 hPa | - | - | - | - |
| 1777782900 | 10.56° C | 42% | 981 hPa | - | - | - | - |
| 1777779301 | 10° C | 44% | 981 hPa | - | - | - | - |
* Rain since midnight (hover to see other rain measurements)
** Current wind speed in m/s (hover to see current wind gust speed)